sensor_id;sensor_type;location;lat;lon;timestamp;pressure;altitude;pressure_sealevel;temperature;humidity
63132;BME280;49234;35.600;139.358;2023-01-27T00:00:19;99788.82;;;5.86;36.51
63132;BME280;49234;35.600;139.358;2023-01-27T00:02:48;99778.74;;;5.74;34.44
63132;BME280;49234;35.600;139.358;2023-01-27T00:05:17;99768.65;;;5.97;34.10
63132;BME280;49234;35.600;139.358;2023-01-27T00:07:47;99751.98;;;6.03;33.53
63132;BME280;49234;35.600;139.358;2023-01-27T00:10:19;99741.73;;;6.26;33.58
63132;BME280;49234;35.600;139.358;2023-01-27T00:12:48;99725.39;;;6.03;33.77
63132;BME280;49234;35.600;139.358;2023-01-27T00:15:18;99708.46;;;5.93;32.89
63132;BME280;49234;35.600;139.358;2023-01-27T00:17:47;99695.17;;;6.06;32.96
63132;BME280;49234;35.600;139.358;2023-01-27T00:20:17;99681.07;;;6.25;33.26
63132;BME280;49234;35.600;139.358;2023-01-27T00:22:46;99678.57;;;6.22;33.62
63132;BME280;49234;35.600;139.358;2023-01-27T00:25:15;99677.20;;;5.98;34.40
63132;BME280;49234;35.600;139.358;2023-01-27T00:27:44;99667.81;;;6.10;34.03
63132;BME280;49234;35.600;139.358;2023-01-27T00:30:14;99676.41;;;6.07;34.81
63132;BME280;49234;35.600;139.358;2023-01-27T00:32:43;99669.39;;;6.15;34.21
63132;BME280;49234;35.600;139.358;2023-01-27T00:35:14;99662.15;;;6.24;37.12
63132;BME280;49234;35.600;139.358;2023-01-27T00:37:43;99664.61;;;6.24;33.54
63132;BME280;49234;35.600;139.358;2023-01-27T00:40:15;99668.06;;;6.32;36.39
63132;BME280;49234;35.600;139.358;2023-01-27T00:42:44;99677.72;;;6.30;34.16
63132;BME280;49234;35.600;139.358;2023-01-27T00:45:14;99674.44;;;6.40;34.18
63132;BME280;49234;35.600;139.358;2023-01-27T00:47:43;99674.72;;;6.55;33.62
63132;BME280;49234;35.600;139.358;2023-01-27T00:50:12;99680.04;;;6.52;34.30
63132;BME280;49234;35.600;139.358;2023-01-27T00:52:44;99672.06;;;6.41;31.84
63132;BME280;49234;35.600;139.358;2023-01-27T00:55:14;99676.10;;;6.46;34.91
63132;BME280;49234;35.600;139.358;2023-01-27T00:57:43;99668.44;;;6.57;32.73
63132;BME280;49234;35.600;139.358;2023-01-27T01:00:13;99664.24;;;6.56;33.68
63132;BME280;49234;35.600;139.358;2023-01-27T01:02:43;99652.43;;;6.41;33.21
63132;BME280;49234;35.600;139.358;2023-01-27T01:05:11;99649.32;;;6.45;34.39
63132;BME280;49234;35.600;139.358;2023-01-27T01:07:41;99655.92;;;6.71;33.63
63132;BME280;49234;35.600;139.358;2023-01-27T01:10:11;99659.18;;;6.71;32.91
63132;BME280;49234;35.600;139.358;2023-01-27T01:12:39;99655.24;;;6.68;32.81
63132;BME280;49234;35.600;139.358;2023-01-27T01:15:10;99651.56;;;6.44;33.41
63132;BME280;49234;35.600;139.358;2023-01-27T01:17:39;99640.00;;;6.53;32.55
63132;BME280;49234;35.600;139.358;2023-01-27T01:20:09;99627.64;;;6.55;32.92
63132;BME280;49234;35.600;139.358;2023-01-27T01:22:38;99628.96;;;6.76;34.72
63132;BME280;49234;35.600;139.358;2023-01-27T01:25:07;99620.55;;;6.85;36.49
63132;BME280;49234;35.600;139.358;2023-01-27T01:27:36;99600.33;;;6.85;35.94
63132;BME280;49234;35.600;139.358;2023-01-27T01:30:06;99592.63;;;6.65;34.99
63132;BME280;49234;35.600;139.358;2023-01-27T01:32:35;99590.54;;;6.94;37.02
63132;BME280;49234;35.600;139.358;2023-01-27T01:35:05;99585.88;;;6.79;37.42
63132;BME280;49234;35.600;139.358;2023-01-27T01:37:34;99585.58;;;6.63;34.21
63132;BME280;49234;35.600;139.358;2023-01-27T01:40:04;99573.58;;;7.03;37.30
63132;BME280;49234;35.600;139.358;2023-01-27T01:42:54;99567.97;;;7.03;34.14
63132;BME280;49234;35.600;139.358;2023-01-27T01:45:49;99554.94;;;7.09;35.17
63132;BME280;49234;35.600;139.358;2023-01-27T01:48:24;99531.63;;;6.77;35.42
63132;BME280;49234;35.600;139.358;2023-01-27T01:50:58;99527.45;;;7.11;34.50
63132;BME280;49234;35.600;139.358;2023-01-27T01:53:32;99512.91;;;6.92;38.06
63132;BME280;49234;35.600;139.358;2023-01-27T01:56:08;99505.92;;;7.41;34.35
63132;BME280;49234;35.600;139.358;2023-01-27T01:58:38;99510.59;;;7.28;33.90
63132;BME280;49234;35.600;139.358;2023-01-27T02:01:09;99502.50;;;7.02;34.14
63132;BME280;49234;35.600;139.358;2023-01-27T02:03:42;99486.63;;;7.34;33.83
63132;BME280;49234;35.600;139.358;2023-01-27T02:06:14;99489.70;;;7.08;35.19
63132;BME280;49234;35.600;139.358;2023-01-27T02:08:45;99473.52;;;7.07;36.77
63132;BME280;49234;35.600;139.358;2023-01-27T02:11:17;99459.39;;;7.34;34.85
63132;BME280;49234;35.600;139.358;2023-01-27T02:13:47;99448.22;;;7.07;33.66
63132;BME280;49234;35.600;139.358;2023-01-27T02:16:16;99445.90;;;6.98;35.17
63132;BME280;49234;35.600;139.358;2023-01-27T02:18:46;99433.34;;;7.05;36.54
63132;BME280;49234;35.600;139.358;2023-01-27T02:21:15;99436.68;;;7.19;35.32
63132;BME280;49234;35.600;139.358;2023-01-27T02:23:54;99431.10;;;7.19;35.62
63132;BME280;49234;35.600;139.358;2023-01-27T02:26:28;99429.39;;;7.21;34.72
63132;BME280;49234;35.600;139.358;2023-01-27T02:29:01;99426.30;;;7.26;35.56
63132;BME280;49234;35.600;139.358;2023-01-27T02:31:31;99418.34;;;7.80;34.86
63132;BME280;49234;35.600;139.358;2023-01-27T02:34:03;99411.48;;;7.33;34.66
63132;BME280;49234;35.600;139.358;2023-01-27T02:36:37;99404.46;;;7.34;35.37
63132;BME280;49234;35.600;139.358;2023-01-27T02:39:11;99386.60;;;7.37;34.99
63132;BME280;49234;35.600;139.358;2023-01-27T02:41:43;99362.21;;;7.38;37.50
63132;BME280;49234;35.600;139.358;2023-01-27T02:44:13;99348.89;;;7.42;34.83
63132;BME280;49234;35.600;139.358;2023-01-27T02:46:42;99345.02;;;7.39;34.70
63132;BME280;49234;35.600;139.358;2023-01-27T02:49:11;99345.32;;;7.65;32.09
63132;BME280;49234;35.600;139.358;2023-01-27T02:51:45;99335.51;;;7.37;34.71
63132;BME280;49234;35.600;139.358;2023-01-27T02:54:15;99335.89;;;7.38;34.24
63132;BME280;49234;35.600;139.358;2023-01-27T02:56:45;99335.36;;;7.45;36.45
63132;BME280;49234;35.600;139.358;2023-01-27T02:59:15;99325.58;;;7.47;31.08
63132;BME280;49234;35.600;139.358;2023-01-27T03:01:48;99316.03;;;7.40;32.36
63132;BME280;49234;35.600;139.358;2023-01-27T03:04:18;99313.85;;;7.43;36.47
63132;BME280;49234;35.600;139.358;2023-01-27T03:06:49;99297.67;;;7.37;33.66
63132;BME280;49234;35.600;139.358;2023-01-27T03:09:19;99306.48;;;7.39;33.33
63132;BME280;49234;35.600;139.358;2023-01-27T03:11:47;99314.33;;;7.48;33.23
63132;BME280;49234;35.600;139.358;2023-01-27T03:14:17;99301.42;;;7.46;32.34
63132;BME280;49234;35.600;139.358;2023-01-27T03:16:46;99293.07;;;7.31;31.77
63132;BME280;49234;35.600;139.358;2023-01-27T03:19:15;99292.18;;;7.44;33.96
63132;BME280;49234;35.600;139.358;2023-01-27T03:21:45;99285.48;;;7.37;32.96
63132;BME280;49234;35.600;139.358;2023-01-27T03:24:14;99275.57;;;7.42;36.15
63132;BME280;49234;35.600;139.358;2023-01-27T03:26:43;99264.97;;;7.40;36.01
63132;BME280;49234;35.600;139.358;2023-01-27T03:29:12;99262.37;;;7.49;33.52
63132;BME280;49234;35.600;139.358;2023-01-27T03:31:42;99259.48;;;7.59;37.09
63132;BME280;49234;35.600;139.358;2023-01-27T03:34:11;99253.55;;;7.40;32.81
63132;BME280;49234;35.600;139.358;2023-01-27T03:36:41;99255.22;;;7.59;34.53
63132;BME280;49234;35.600;139.358;2023-01-27T03:39:10;99244.68;;;7.64;31.91
63132;BME280;49234;35.600;139.358;2023-01-27T03:41:40;99228.92;;;7.61;34.12
63132;BME280;49234;35.600;139.358;2023-01-27T03:44:10;99216.39;;;7.62;34.32
63132;BME280;49234;35.600;139.358;2023-01-27T03:46:39;99215.64;;;7.63;35.38
63132;BME280;49234;35.600;139.358;2023-01-27T03:49:09;99219.36;;;7.68;36.16
63132;BME280;49234;35.600;139.358;2023-01-27T03:51:38;99224.85;;;7.69;35.12
63132;BME280;49234;35.600;139.358;2023-01-27T03:54:08;99220.39;;;7.70;34.58
63132;BME280;49234;35.600;139.358;2023-01-27T03:56:37;99205.54;;;7.71;34.17
63132;BME280;49234;35.600;139.358;2023-01-27T03:59:06;99197.09;;;7.79;34.15
63132;BME280;49234;35.600;139.358;2023-01-27T04:01:41;99192.23;;;7.76;34.23
63132;BME280;49234;35.600;139.358;2023-01-27T04:04:10;99201.53;;;7.76;33.65
63132;BME280;49234;35.600;139.358;2023-01-27T04:06:40;99200.85;;;7.74;32.12
63132;BME280;49234;35.600;139.358;2023-01-27T04:09:21;99193.05;;;7.51;33.61
63132;BME280;49234;35.600;139.358;2023-01-27T04:11:52;99185.69;;;7.87;32.59
63132;BME280;49234;35.600;139.358;2023-01-27T04:14:29;99179.25;;;7.83;34.43
63132;BME280;49234;35.600;139.358;2023-01-27T04:17:00;99163.45;;;7.78;34.50
63132;BME280;49234;35.600;139.358;2023-01-27T04:19:36;99149.55;;;7.41;32.15
63132;BME280;49234;35.600;139.358;2023-01-27T04:22:06;99150.86;;;7.70;34.23
63132;BME280;49234;35.600;139.358;2023-01-27T04:24:36;99152.02;;;7.74;34.03
63132;BME280;49234;35.600;139.358;2023-01-27T04:27:12;99149.27;;;7.59;32.35
63132;BME280;49234;35.600;139.358;2023-01-27T04:29:42;99140.65;;;7.68;30.79
63132;BME280;49234;35.600;139.358;2023-01-27T04:32:12;99129.87;;;7.63;31.67
63132;BME280;49234;35.600;139.358;2023-01-27T04:34:43;99127.24;;;7.71;33.74
63132;BME280;49234;35.600;139.358;2023-01-27T04:37:12;99113.09;;;7.67;32.93
63132;BME280;49234;35.600;139.358;2023-01-27T04:39:41;99127.98;;;7.65;35.51
63132;BME280;49234;35.600;139.358;2023-01-27T04:42:10;99131.46;;;7.62;31.18
63132;BME280;49234;35.600;139.358;2023-01-27T04:44:40;99110.84;;;7.68;36.31
63132;BME280;49234;35.600;139.358;2023-01-27T04:47:14;99111.72;;;7.46;34.34
63132;BME280;49234;35.600;139.358;2023-01-27T04:49:44;99107.39;;;7.68;33.81
63132;BME280;49234;35.600;139.358;2023-01-27T04:52:14;99119.61;;;7.69;33.56
63132;BME280;49234;35.600;139.358;2023-01-27T04:54:44;99111.80;;;7.80;33.17
63132;BME280;49234;35.600;139.358;2023-01-27T04:57:14;99110.69;;;7.81;33.34
63132;BME280;49234;35.600;139.358;2023-01-27T04:59:43;99082.62;;;7.86;32.40
63132;BME280;49234;35.600;139.358;2023-01-27T05:02:13;99076.80;;;7.54;33.10
63132;BME280;49234;35.600;139.358;2023-01-27T05:04:43;99079.22;;;7.76;32.87
63132;BME280;49234;35.600;139.358;2023-01-27T05:07:12;99084.81;;;7.72;34.11
63132;BME280;49234;35.600;139.358;2023-01-27T05:09:46;99083.24;;;7.72;34.23
63132;BME280;49234;35.600;139.358;2023-01-27T05:12:17;99070.08;;;7.54;32.77
63132;BME280;49234;35.600;139.358;2023-01-27T05:14:47;99061.87;;;7.72;33.93
63132;BME280;49234;35.600;139.358;2023-01-27T05:17:16;99052.29;;;7.69;34.99
63132;BME280;49234;35.600;139.358;2023-01-27T05:19:46;99040.52;;;7.73;34.65
63132;BME280;49234;35.600;139.358;2023-01-27T05:22:16;99048.51;;;7.87;33.16
63132;BME280;49234;35.600;139.358;2023-01-27T05:24:45;99045.29;;;7.99;32.87
63132;BME280;49234;35.600;139.358;2023-01-27T05:27:13;99041.11;;;7.88;33.27
63132;BME280;49234;35.600;139.358;2023-01-27T05:29:44;99038.51;;;7.83;31.69
63132;BME280;49234;35.600;139.358;2023-01-27T05:32:14;99037.15;;;7.82;32.64
63132;BME280;49234;35.600;139.358;2023-01-27T05:34:43;99019.78;;;7.74;34.39
63132;BME280;49234;35.600;139.358;2023-01-27T05:37:13;99026.69;;;7.72;33.51
63132;BME280;49234;35.600;139.358;2023-01-27T05:39:42;99011.65;;;7.60;33.21
63132;BME280;49234;35.600;139.358;2023-01-27T05:42:12;99011.50;;;7.80;34.19
63132;BME280;49234;35.600;139.358;2023-01-27T05:44:41;99014.73;;;7.74;34.07
63132;BME280;49234;35.600;139.358;2023-01-27T05:47:10;99007.47;;;7.79;34.47
63132;BME280;49234;35.600;139.358;2023-01-27T05:49:44;99013.07;;;7.83;33.68
63132;BME280;49234;35.600;139.358;2023-01-27T05:52:13;99004.38;;;7.78;34.09
63132;BME280;49234;35.600;139.358;2023-01-27T05:55:29;98996.11;;;7.79;35.20
63132;BME280;49234;35.600;139.358;2023-01-27T05:58:06;98991.26;;;7.82;34.54
63132;BME280;49234;35.600;139.358;2023-01-27T06:00:35;98989.80;;;7.72;34.72
63132;BME280;49234;35.600;139.358;2023-01-27T06:03:12;98982.21;;;7.78;34.50
63132;BME280;49234;35.600;139.358;2023-01-27T06:05:53;98980.12;;;7.75;35.10
63132;BME280;49234;35.600;139.358;2023-01-27T06:08:23;98963.70;;;7.78;35.14
63132;BME280;49234;35.600;139.358;2023-01-27T06:10:56;98945.84;;;7.76;34.79
63132;BME280;49234;35.600;139.358;2023-01-27T06:13:27;98969.73;;;7.74;35.80
63132;BME280;49234;35.600;139.358;2023-01-27T06:17:01;98971.56;;;7.71;35.94
63132;BME280;49234;35.600;139.358;2023-01-27T06:19:32;98956.74;;;7.76;36.38
63132;BME280;49234;35.600;139.358;2023-01-27T06:22:02;98945.51;;;7.72;35.67
63132;BME280;49234;35.600;139.358;2023-01-27T06:24:32;98962.82;;;7.71;36.09
63132;BME280;49234;35.600;139.358;2023-01-27T06:27:02;98939.98;;;7.70;36.27
63132;BME280;49234;35.600;139.358;2023-01-27T06:29:32;98927.79;;;7.49;36.66
63132;BME280;49234;35.600;139.358;2023-01-27T06:32:04;98927.49;;;7.69;37.36
63132;BME280;49234;35.600;139.358;2023-01-27T06:34:34;98926.89;;;7.67;36.74
63132;BME280;49234;35.600;139.358;2023-01-27T06:37:03;98931.01;;;7.67;38.28
63132;BME280;49234;35.600;139.358;2023-01-27T06:39:33;98936.30;;;7.63;37.61
63132;BME280;49234;35.600;139.358;2023-01-27T06:42:03;98916.61;;;7.61;37.45
63132;BME280;49234;35.600;139.358;2023-01-27T06:44:32;98921.93;;;7.92;37.95
63132;BME280;49234;35.600;139.358;2023-01-27T06:47:00;98924.86;;;7.64;37.90
63132;BME280;49234;35.600;139.358;2023-01-27T06:49:29;98933.25;;;7.69;39.30
63132;BME280;49234;35.600;139.358;2023-01-27T06:51:59;98939.73;;;8.02;37.62
63132;BME280;49234;35.600;139.358;2023-01-27T06:54:29;98926.52;;;7.70;37.81
63132;BME280;49234;35.600;139.358;2023-01-27T06:56:58;98913.60;;;7.64;38.47
63132;BME280;49234;35.600;139.358;2023-01-27T06:59:27;98911.04;;;7.67;38.43
63132;BME280;49234;35.600;139.358;2023-01-27T07:01:56;98916.41;;;7.97;38.37
63132;BME280;49234;35.600;139.358;2023-01-27T07:04:25;98910.73;;;7.99;38.73
63132;BME280;49234;35.600;139.358;2023-01-27T07:06:54;98896.16;;;7.70;38.22
63132;BME280;49234;35.600;139.358;2023-01-27T07:09:29;98895.62;;;7.82;37.90
63132;BME280;49234;35.600;139.358;2023-01-27T07:12:03;98900.39;;;7.65;38.07
63132;BME280;49234;35.600;139.358;2023-01-27T07:14:45;98912.37;;;7.65;38.70
63132;BME280;49234;35.600;139.358;2023-01-27T07:17:15;98908.43;;;7.63;38.45
63132;BME280;49234;35.600;139.358;2023-01-27T07:19:44;98910.91;;;7.60;38.63
63132;BME280;49234;35.600;139.358;2023-01-27T07:22:14;98896.18;;;7.56;38.79
63132;BME280;49234;35.600;139.358;2023-01-27T07:24:49;98918.57;;;7.56;38.78
63132;BME280;49234;35.600;139.358;2023-01-27T07:27:19;98910.17;;;7.57;39.21
63132;BME280;49234;35.600;139.358;2023-01-27T07:29:50;98927.63;;;7.55;39.30
63132;BME280;49234;35.600;139.358;2023-01-27T07:32:19;98909.90;;;7.55;39.51
63132;BME280;49234;35.600;139.358;2023-01-27T07:34:48;98902.88;;;7.56;39.38
63132;BME280;49234;35.600;139.358;2023-01-27T07:37:20;98896.07;;;7.59;38.72
63132;BME280;49234;35.600;139.358;2023-01-27T07:39:57;98888.14;;;7.57;38.96
63132;BME280;49234;35.600;139.358;2023-01-27T07:42:32;98889.73;;;7.55;39.12
63132;BME280;49234;35.600;139.358;2023-01-27T07:45:21;98873.56;;;7.54;38.98
63132;BME280;49234;35.600;139.358;2023-01-27T07:48:03;98884.24;;;7.55;39.51
63132;BME280;49234;35.600;139.358;2023-01-27T07:50:38;98881.15;;;7.55;39.45
63132;BME280;49234;35.600;139.358;2023-01-27T07:53:11;98879.51;;;7.52;39.30
63132;BME280;49234;35.600;139.358;2023-01-27T07:55:42;98869.24;;;7.48;39.45
63132;BME280;49234;35.600;139.358;2023-01-27T07:58:13;98866.21;;;7.47;39.47
63132;BME280;49234;35.600;139.358;2023-01-27T08:00:49;98844.26;;;7.46;39.56
63132;BME280;49234;35.600;139.358;2023-01-27T08:03:30;98843.16;;;7.43;39.57
63132;BME280;49234;35.600;139.358;2023-01-27T08:06:15;98833.57;;;7.77;39.51
63132;BME280;49234;35.600;139.358;2023-01-27T08:09:04;98825.12;;;7.48;39.46
63132;BME280;49234;35.600;139.358;2023-01-27T08:11:34;98820.14;;;7.43;39.74
63132;BME280;49234;35.600;139.358;2023-01-27T08:14:08;98821.68;;;7.68;40.01
63132;BME280;49234;35.600;139.358;2023-01-27T08:16:38;98817.99;;;7.93;39.62
63132;BME280;49234;35.600;139.358;2023-01-27T08:19:08;98818.08;;;7.40;39.95
63132;BME280;49234;35.600;139.358;2023-01-27T08:21:37;98807.60;;;7.42;39.92
63132;BME280;49234;35.600;139.358;2023-01-27T08:24:10;98794.67;;;7.37;39.87
63132;BME280;49234;35.600;139.358;2023-01-27T08:26:39;98785.10;;;7.35;40.26
63132;BME280;49234;35.600;139.358;2023-01-27T08:29:10;98797.58;;;7.43;40.46
63132;BME280;49234;35.600;139.358;2023-01-27T08:31:50;98782.02;;;7.45;40.51
63132;BME280;49234;35.600;139.358;2023-01-27T08:34:24;98787.44;;;7.40;40.59
63132;BME280;49234;35.600;139.358;2023-01-27T08:36:59;98778.51;;;7.68;40.65
63132;BME280;49234;35.600;139.358;2023-01-27T08:39:29;98767.48;;;7.47;40.59
63132;BME280;49234;35.600;139.358;2023-01-27T08:41:58;98762.11;;;7.54;40.35
63132;BME280;49234;35.600;139.358;2023-01-27T08:44:29;98750.14;;;7.49;40.26
63132;BME280;49234;35.600;139.358;2023-01-27T08:47:01;98741.94;;;7.46;40.67
63132;BME280;49234;35.600;139.358;2023-01-27T08:49:30;98736.12;;;7.67;40.77
63132;BME280;49234;35.600;139.358;2023-01-27T08:52:01;98734.87;;;7.48;40.65
63132;BME280;49234;35.600;139.358;2023-01-27T08:54:32;98724.90;;;7.50;41.02
63132;BME280;49234;35.600;139.358;2023-01-27T08:57:01;98729.85;;;7.46;40.82
63132;BME280;49234;35.600;139.358;2023-01-27T08:59:30;98748.03;;;7.49;40.99
63132;BME280;49234;35.600;139.358;2023-01-27T09:01:59;98751.08;;;7.57;40.81
63132;BME280;49234;35.600;139.358;2023-01-27T09:04:29;98749.45;;;7.58;40.77
63132;BME280;49234;35.600;139.358;2023-01-27T09:06:58;98743.92;;;7.59;41.22
63132;BME280;49234;35.600;139.358;2023-01-27T09:09:27;98729.91;;;7.61;41.19
63132;BME280;49234;35.600;139.358;2023-01-27T09:11:56;98730.65;;;7.57;41.43
63132;BME280;49234;35.600;139.358;2023-01-27T09:14:25;98727.20;;;7.56;41.34
63132;BME280;49234;35.600;139.358;2023-01-27T09:16:55;98729.99;;;7.62;41.03
63132;BME280;49234;35.600;139.358;2023-01-27T09:19:25;98734.08;;;7.63;41.17
63132;BME280;49234;35.600;139.358;2023-01-27T09:21:55;98727.64;;;7.58;41.25
63132;BME280;49234;35.600;139.358;2023-01-27T09:24:27;98716.75;;;7.57;41.16
63132;BME280;49234;35.600;139.358;2023-01-27T09:26:58;98714.85;;;8.07;41.22
63132;BME280;49234;35.600;139.358;2023-01-27T09:29:33;98709.85;;;7.58;41.29
63132;BME280;49234;35.600;139.358;2023-01-27T09:32:02;98716.80;;;7.59;41.35
63132;BME280;49234;35.600;139.358;2023-01-27T09:34:32;98720.85;;;7.40;41.18
63132;BME280;49234;35.600;139.358;2023-01-27T09:37:06;98727.71;;;7.65;41.51
63132;BME280;49234;35.600;139.358;2023-01-27T09:39:39;98718.14;;;7.66;41.32
63132;BME280;49234;35.600;139.358;2023-01-27T09:42:32;98716.12;;;7.65;41.37
63132;BME280;49234;35.600;139.358;2023-01-27T09:45:21;98726.08;;;7.62;41.49
63132;BME280;49234;35.600;139.358;2023-01-27T09:48:03;98729.59;;;7.63;41.45
63132;BME280;49234;35.600;139.358;2023-01-27T09:50:44;98735.54;;;7.59;41.69
63132;BME280;49234;35.600;139.358;2023-01-27T09:54:03;98743.44;;;7.82;41.92
63132;BME280;49234;35.600;139.358;2023-01-27T09:56:47;98737.55;;;7.58;41.98
63132;BME280;49234;35.600;139.358;2023-01-27T09:59:50;98730.78;;;7.89;42.23
63132;BME280;49234;35.600;139.358;2023-01-27T10:02:43;98722.62;;;7.64;42.19
63132;BME280;49234;35.600;139.358;2023-01-27T10:05:28;98720.27;;;7.65;41.77
63132;BME280;49234;35.600;139.358;2023-01-27T10:08:17;98716.51;;;7.65;42.49
63132;BME280;49234;35.600;139.358;2023-01-27T10:11:04;98722.36;;;7.61;42.79
63132;BME280;49234;35.600;139.358;2023-01-27T10:13:46;98720.71;;;7.63;42.62
63132;BME280;49234;35.600;139.358;2023-01-27T10:16:37;98718.67;;;7.69;44.04
63132;BME280;49234;35.600;139.358;2023-01-27T10:19:23;98715.92;;;7.65;42.60
63132;BME280;49234;35.600;139.358;2023-01-27T10:22:06;98712.92;;;7.61;41.89
63132;BME280;49234;35.600;139.358;2023-01-27T10:25:02;98709.10;;;7.57;41.88
63132;BME280;49234;35.600;139.358;2023-01-27T10:27:37;98706.11;;;7.51;41.84
63132;BME280;49234;35.600;139.358;2023-01-27T10:30:15;98698.89;;;7.52;42.47
63132;BME280;49234;35.600;139.358;2023-01-27T10:32:53;98700.29;;;7.55;42.39
63132;BME280;49234;35.600;139.358;2023-01-27T10:35:35;98704.27;;;7.59;42.55
63132;BME280;49234;35.600;139.358;2023-01-27T10:38:19;98708.80;;;7.79;43.19
63132;BME280;49234;35.600;139.358;2023-01-27T10:40:55;98712.49;;;7.73;43.75
63132;BME280;49234;35.600;139.358;2023-01-27T10:43:32;98715.30;;;7.76;43.11
63132;BME280;49234;35.600;139.358;2023-01-27T10:46:13;98734.62;;;7.37;42.61
63132;BME280;49234;35.600;139.358;2023-01-27T10:48:49;98745.59;;;7.58;43.89
63132;BME280;49234;35.600;139.358;2023-01-27T10:51:23;98743.22;;;7.66;42.41
63132;BME280;49234;35.600;139.358;2023-01-27T10:53:57;98733.47;;;7.50;42.63
63132;BME280;49234;35.600;139.358;2023-01-27T10:56:37;98735.97;;;7.67;41.52
63132;BME280;49234;35.600;139.358;2023-01-27T10:59:13;98732.18;;;7.29;41.93
63132;BME280;49234;35.600;139.358;2023-01-27T11:01:50;98727.26;;;7.31;41.69
63132;BME280;49234;35.600;139.358;2023-01-27T11:04:29;98725.04;;;6.92;42.48
63132;BME280;49234;35.600;139.358;2023-01-27T11:07:00;98729.66;;;6.96;42.11
63132;BME280;49234;35.600;139.358;2023-01-27T11:09:33;98729.95;;;7.17;43.20
63132;BME280;49234;35.600;139.358;2023-01-27T11:12:08;98722.66;;;7.13;42.11
63132;BME280;49234;35.600;139.358;2023-01-27T11:14:45;98727.35;;;7.02;43.47
63132;BME280;49234;35.600;139.358;2023-01-27T11:17:22;98724.10;;;7.08;43.49
63132;BME280;49234;35.600;139.358;2023-01-27T11:19:59;98719.21;;;7.29;41.13
63132;BME280;49234;35.600;139.358;2023-01-27T11:22:47;98717.94;;;6.94;41.59
63132;BME280;49234;35.600;139.358;2023-01-27T11:25:26;98725.78;;;7.07;44.77
63132;BME280;49234;35.600;139.358;2023-01-27T11:28:11;98724.66;;;7.20;43.16
63132;BME280;49234;35.600;139.358;2023-01-27T11:30:50;98722.14;;;7.01;44.49
63132;BME280;49234;35.600;139.358;2023-01-27T11:33:27;98710.73;;;7.06;41.55
63132;BME280;49234;35.600;139.358;2023-01-27T11:35:58;98700.45;;;6.62;40.70
63132;BME280;49234;35.600;139.358;2023-01-27T11:38:27;98687.72;;;6.89;40.82
63132;BME280;49234;35.600;139.358;2023-01-27T11:40:56;98690.02;;;7.09;40.54
63132;BME280;49234;35.600;139.358;2023-01-27T11:43:27;98697.73;;;6.83;42.09
63132;BME280;49234;35.600;139.358;2023-01-27T11:46:02;98715.40;;;7.06;42.87
63132;BME280;49234;35.600;139.358;2023-01-27T11:48:38;98719.85;;;7.08;42.90
63132;BME280;49234;35.600;139.358;2023-01-27T11:51:16;98708.32;;;6.59;41.42
63132;BME280;49234;35.600;139.358;2023-01-27T11:53:51;98707.80;;;7.07;42.07
63132;BME280;49234;35.600;139.358;2023-01-27T11:56:22;98708.13;;;6.99;40.73
63132;BME280;49234;35.600;139.358;2023-01-27T11:58:55;98705.40;;;6.99;43.42
63132;BME280;49234;35.600;139.358;2023-01-27T12:01:38;98709.93;;;7.02;41.97
63132;BME280;49234;35.600;139.358;2023-01-27T12:04:15;98704.59;;;6.66;40.29
63132;BME280;49234;35.600;139.358;2023-01-27T12:06:47;98707.24;;;6.92;40.63
63132;BME280;49234;35.600;139.358;2023-01-27T12:09:36;98698.49;;;6.71;41.02
63132;BME280;49234;35.600;139.358;2023-01-27T12:12:21;98698.25;;;6.80;42.61
63132;BME280;49234;35.600;139.358;2023-01-27T12:14:52;98696.77;;;6.72;43.22
63132;BME280;49234;35.600;139.358;2023-01-27T12:17:27;98695.82;;;6.77;42.02
63132;BME280;49234;35.600;139.358;2023-01-27T12:20:01;98691.79;;;6.62;42.11
63132;BME280;49234;35.600;139.358;2023-01-27T12:22:35;98698.42;;;6.89;42.05
63132;BME280;49234;35.600;139.358;2023-01-27T12:25:12;98703.98;;;6.89;41.60
63132;BME280;49234;35.600;139.358;2023-01-27T12:27:50;98710.08;;;6.81;41.06
63132;BME280;49234;35.600;139.358;2023-01-27T12:30:22;98709.70;;;6.86;39.97
63132;BME280;49234;35.600;139.358;2023-01-27T12:32:53;98704.44;;;6.91;39.15
63132;BME280;49234;35.600;139.358;2023-01-27T12:35:26;98700.85;;;6.67;40.03
63132;BME280;49234;35.600;139.358;2023-01-27T12:38:02;98701.40;;;6.93;41.34
63132;BME280;49234;35.600;139.358;2023-01-27T12:40:33;98695.47;;;6.76;42.62
63132;BME280;49234;35.600;139.358;2023-01-27T12:43:10;98692.29;;;6.76;42.07
63132;BME280;49234;35.600;139.358;2023-01-27T12:45:42;98694.99;;;6.81;40.42
63132;BME280;49234;35.600;139.358;2023-01-27T12:48:21;98701.98;;;6.87;41.72
63132;BME280;49234;35.600;139.358;2023-01-27T12:51:05;98696.21;;;6.67;40.16
63132;BME280;49234;35.600;139.358;2023-01-27T12:53:35;98698.51;;;6.91;40.92
63132;BME280;49234;35.600;139.358;2023-01-27T12:56:12;98695.90;;;7.02;39.61
63132;BME280;49234;35.600;139.358;2023-01-27T12:58:45;98703.37;;;6.86;42.43
63132;BME280;49234;35.600;139.358;2023-01-27T13:01:27;98714.15;;;6.70;38.02
63132;BME280;49234;35.600;139.358;2023-01-27T13:03:59;98714.26;;;6.97;38.98
63132;BME280;49234;35.600;139.358;2023-01-27T13:06:37;98714.36;;;6.70;39.92
63132;BME280;49234;35.600;139.358;2023-01-27T13:09:23;98719.50;;;6.60;41.24
63132;BME280;49234;35.600;139.358;2023-01-27T13:11:54;98727.59;;;6.50;38.17
63132;BME280;49234;35.600;139.358;2023-01-27T13:14:29;98724.25;;;5.84;39.58
63132;BME280;49234;35.600;139.358;2023-01-27T13:17:00;98725.59;;;6.55;38.98
63132;BME280;49234;35.600;139.358;2023-01-27T13:19:38;98734.94;;;6.25;42.43
63132;BME280;49234;35.600;139.358;2023-01-27T13:22:17;98732.19;;;6.30;39.68